createdAt,value
2023-06-16T00:01:16.334Z,12.77
2023-06-16T00:03:45.256Z,15.13
2023-06-16T00:06:15.701Z,14.68
2023-06-16T00:08:48.259Z,17.58
2023-06-16T00:11:16.880Z,14.00
2023-06-16T00:13:46.512Z,13.55
2023-06-16T00:16:14.649Z,14.32
2023-06-16T00:18:45.407Z,17.63
2023-06-16T00:21:15.467Z,15.63
2023-06-16T00:23:43.030Z,15.02
2023-06-16T00:26:10.323Z,13.80
2023-06-16T00:28:40.313Z,13.23
2023-06-16T00:31:07.467Z,13.48
2023-06-16T00:33:36.943Z,15.60
2023-06-16T00:36:04.351Z,14.98
2023-06-16T00:38:31.677Z,19.58
2023-06-16T00:40:58.851Z,18.75
2023-06-16T00:43:26.015Z,12.85
2023-06-16T00:45:53.502Z,17.00
2023-06-16T00:48:22.263Z,14.43
2023-06-16T00:50:49.902Z,15.48
2023-06-16T00:53:18.190Z,16.15
2023-06-16T00:55:45.730Z,24.17
2023-06-16T00:58:13.029Z,15.20
2023-06-16T01:00:40.208Z,20.77
2023-06-16T01:03:10.201Z,14.18
2023-06-16T01:05:38.105Z,18.33
2023-06-16T01:08:18.065Z,15.52
2023-06-16T01:11:18.663Z,15.38
2023-06-16T01:14:23.746Z,17.17
2023-06-16T01:16:54.936Z,17.70
2023-06-16T01:19:38.809Z,15.55
2023-06-16T01:22:41.277Z,17.83
2023-06-16T01:25:15.299Z,24.92
2023-06-16T01:27:48.991Z,14.25
2023-06-16T01:30:17.947Z,20.35
2023-06-16T01:32:48.592Z,15.77
2023-06-16T01:35:17.445Z,19.27
2023-06-16T01:37:46.173Z,17.42
2023-06-16T01:40:15.078Z,16.65
2023-06-16T01:42:45.315Z,16.42
2023-06-16T01:45:15.750Z,21.00
2023-06-16T01:47:45.287Z,24.80
2023-06-16T01:50:13.729Z,20.97
2023-06-16T01:52:40.975Z,19.40
2023-06-16T01:55:10.817Z,18.67
2023-06-16T01:57:39.668Z,20.45
2023-06-16T02:00:28.703Z,16.23
2023-06-16T02:03:10.066Z,19.80
2023-06-16T02:05:42.126Z,16.52
2023-06-16T02:08:10.584Z,19.55
2023-06-16T02:10:38.628Z,20.73
2023-06-16T02:13:06.339Z,18.25
2023-06-16T02:15:33.776Z,18.17
2023-06-16T02:18:01.258Z,17.05
2023-06-16T02:20:28.861Z,20.60
2023-06-16T02:22:56.264Z,20.13
2023-06-16T02:25:23.758Z,20.35
2023-06-16T02:27:50.971Z,20.63
2023-06-16T02:30:18.871Z,18.80
2023-06-16T02:33:01.847Z,16.88
2023-06-16T02:35:31.626Z,18.98
2023-06-16T02:37:58.831Z,21.48
2023-06-16T02:40:28.715Z,21.35
2023-06-16T02:42:56.125Z,24.95
2023-06-16T02:45:23.290Z,20.00
2023-06-16T02:47:50.613Z,19.38
2023-06-16T02:50:18.321Z,19.02
2023-06-16T02:52:46.102Z,21.42
2023-06-16T02:55:17.110Z,19.83
2023-06-16T02:57:53.332Z,16.40
2023-06-16T03:00:21.028Z,22.80
2023-06-16T03:03:23.897Z,18.48
2023-06-16T03:06:03.548Z,19.50
2023-06-16T03:08:33.567Z,19.45
2023-06-16T03:11:00.810Z,19.52
2023-06-16T03:13:34.381Z,20.58
2023-06-16T03:16:02.124Z,16.75
2023-06-16T03:18:29.874Z,21.50
2023-06-16T03:20:59.207Z,23.10
2023-06-16T03:23:30.969Z,24.60
2023-06-16T03:25:59.727Z,17.30
2023-06-16T03:28:42.367Z,20.48
2023-06-16T03:31:11.996Z,17.42
2023-06-16T03:33:44.145Z,19.58
2023-06-16T03:36:13.207Z,20.17
2023-06-16T03:38:42.922Z,15.88
2023-06-16T03:41:10.187Z,15.75
2023-06-16T03:43:37.790Z,16.50
2023-06-16T03:46:05.146Z,18.40
2023-06-16T03:48:33.248Z,21.13
2023-06-16T03:51:03.055Z,16.85
2023-06-16T03:53:30.722Z,20.75
2023-06-16T03:55:59.223Z,15.88
2023-06-16T03:58:26.987Z,21.08
2023-06-16T04:00:54.171Z,17.38
2023-06-16T04:03:23.352Z,18.55
2023-06-16T04:05:51.074Z,17.48
2023-06-16T04:08:18.590Z,18.58
2023-06-16T04:10:45.878Z,18.42
2023-06-16T04:13:14.025Z,18.38
2023-06-16T04:18:15.276Z,16.35
2023-06-16T04:20:42.554Z,17.60
2023-06-16T04:23:10.697Z,17.63
2023-06-16T04:25:39.410Z,18.23
2023-06-16T04:28:07.475Z,21.10
2023-06-16T04:30:34.806Z,16.13
2023-06-16T04:33:03.778Z,14.75
2023-06-16T04:35:35.073Z,17.10
2023-06-16T04:38:07.892Z,15.88
2023-06-16T04:40:37.597Z,14.55
2023-06-16T04:43:05.847Z,13.45
2023-06-16T04:45:33.717Z,14.90
2023-06-16T04:48:01.275Z,12.10
2023-06-16T04:50:30.068Z,15.07
2023-06-16T04:52:57.832Z,15.02
2023-06-16T04:55:25.230Z,13.70
2023-06-16T04:57:55.208Z,12.00
2023-06-16T05:00:22.881Z,18.25
2023-06-16T05:02:50.438Z,12.43
2023-06-16T05:05:19.932Z,9.15
2023-06-16T05:07:49.411Z,13.65
2023-06-16T05:10:17.061Z,12.63
2023-06-16T05:12:44.852Z,17.05
2023-06-16T05:15:12.062Z,18.60
2023-06-16T05:17:40.023Z,14.18
2023-06-16T05:20:09.420Z,14.55
2023-06-16T05:22:40.040Z,10.23
2023-06-16T05:25:08.547Z,11.93
2023-06-16T05:27:35.785Z,16.65
2023-06-16T05:30:03.849Z,15.95
2023-06-16T05:32:34.872Z,11.40
2023-06-16T05:35:04.809Z,11.43
2023-06-16T05:37:32.994Z,10.73
2023-06-16T05:40:03.019Z,12.77
2023-06-16T05:42:32.556Z,10.30
2023-06-16T05:45:00.140Z,8.90
2023-06-16T05:47:29.636Z,8.85
2023-06-16T05:49:58.579Z,10.15
2023-06-16T05:52:26.413Z,11.00
2023-06-16T05:54:53.926Z,13.65
2023-06-16T05:57:31.555Z,7.53
2023-06-16T05:59:58.783Z,9.20
2023-06-16T06:02:26.503Z,9.70
2023-06-16T06:04:54.388Z,11.82
2023-06-16T06:07:21.798Z,10.10
2023-06-16T06:09:49.985Z,7.40
2023-06-16T06:12:18.562Z,9.55
2023-06-16T06:14:45.719Z,8.63
2023-06-16T06:17:12.958Z,6.38
2023-06-16T06:19:40.218Z,7.13
2023-06-16T06:22:08.967Z,8.43
2023-06-16T06:24:38.745Z,7.45
2023-06-16T06:27:07.814Z,8.88
2023-06-16T06:29:35.000Z,9.75
2023-06-16T06:32:02.286Z,9.38
2023-06-16T06:34:29.514Z,7.40
2023-06-16T06:36:57.052Z,6.28
2023-06-16T06:39:24.211Z,10.98
2023-06-16T06:41:51.632Z,8.98
2023-06-16T06:44:24.234Z,8.43
2023-06-16T06:46:52.319Z,7.50
2023-06-16T06:49:21.838Z,7.32
2023-06-16T06:51:49.024Z,8.40
2023-06-16T06:54:16.220Z,7.95
2023-06-16T06:56:43.401Z,8.82
2023-06-16T06:59:10.561Z,7.57
2023-06-16T07:01:39.064Z,10.32
2023-06-16T07:04:06.583Z,9.20
2023-06-16T07:06:34.223Z,7.75
2023-06-16T07:09:01.786Z,11.32
2023-06-16T07:11:29.208Z,6.25
2023-06-16T07:13:56.422Z,9.07
2023-06-16T07:16:23.674Z,9.65
2023-06-16T07:18:51.614Z,7.07
2023-06-16T07:21:18.850Z,6.07
2023-06-16T07:23:46.125Z,9.00
2023-06-16T07:26:13.481Z,5.85
2023-06-16T07:28:42.265Z,9.05
2023-06-16T07:31:09.502Z,7.13
2023-06-16T07:33:36.805Z,6.00
2023-06-16T07:36:04.686Z,8.93
2023-06-16T07:38:31.971Z,5.70
2023-06-16T07:40:59.213Z,5.40
2023-06-16T07:43:26.470Z,7.65
2023-06-16T07:45:53.717Z,6.60
2023-06-16T07:48:20.959Z,5.32
2023-06-16T07:50:48.958Z,7.25
2023-06-16T07:53:17.108Z,5.93
2023-06-16T07:55:44.831Z,6.68
2023-06-16T07:58:12.054Z,7.07
2023-06-16T08:00:39.366Z,6.00
2023-06-16T08:03:07.692Z,10.00
2023-06-16T08:05:35.063Z,5.70
2023-06-16T08:08:02.900Z,7.22
2023-06-16T08:10:30.355Z,5.88
2023-06-16T08:12:57.763Z,7.25
2023-06-16T08:15:25.307Z,7.50
2023-06-16T08:17:52.763Z,10.65
2023-06-16T08:20:20.476Z,7.45
2023-06-16T08:22:48.043Z,5.35
2023-06-16T08:25:15.626Z,6.20
2023-06-16T08:27:42.869Z,5.68
2023-06-16T08:30:11.498Z,7.25
2023-06-16T08:32:40.130Z,8.85
2023-06-16T08:35:09.113Z,5.75
2023-06-16T08:37:37.135Z,10.70
2023-06-16T08:40:12.645Z,8.00
2023-06-16T08:42:42.365Z,6.82
2023-06-16T08:45:11.296Z,6.78
2023-06-16T08:47:41.540Z,13.50
2023-06-16T08:50:10.126Z,6.60
2023-06-16T08:52:44.472Z,7.10
2023-06-16T08:55:15.637Z,11.25
2023-06-16T09:00:18.405Z,9.68
2023-06-16T09:05:26.795Z,9.75
2023-06-16T09:07:54.551Z,7.85
2023-06-16T09:10:22.417Z,8.32
2023-06-16T09:12:54.417Z,13.70
2023-06-16T09:15:22.766Z,9.93
2023-06-16T09:17:51.177Z,7.72
2023-06-16T09:20:20.247Z,8.13
2023-06-16T09:22:58.166Z,9.03
2023-06-16T09:25:25.496Z,11.23
2023-06-16T09:27:54.217Z,7.68
2023-06-16T09:30:26.634Z,9.35
2023-06-16T09:32:59.333Z,13.38
2023-06-16T09:35:29.061Z,8.13
2023-06-16T09:38:01.946Z,8.35
2023-06-16T09:40:33.574Z,7.93
2023-06-16T09:43:05.280Z,7.43
2023-06-16T09:45:33.520Z,7.30
2023-06-16T09:48:05.529Z,8.27
2023-06-16T09:50:34.339Z,7.00
2023-06-16T09:53:06.231Z,9.43
2023-06-16T09:55:38.739Z,9.73
2023-06-16T09:58:06.547Z,5.90
2023-06-16T10:00:34.540Z,9.77
2023-06-16T10:03:03.664Z,10.40
2023-06-16T10:05:36.400Z,9.23
2023-06-16T10:08:05.885Z,5.82
2023-06-16T10:10:34.975Z,7.57
2023-06-16T10:13:07.436Z,8.10
2023-06-16T10:15:43.093Z,9.40
2023-06-16T10:18:14.306Z,7.88
2023-06-16T10:20:42.325Z,6.63
2023-06-16T10:23:10.622Z,7.32
2023-06-16T10:25:41.636Z,6.43
2023-06-16T10:28:14.910Z,6.90
2023-06-16T10:30:45.383Z,8.80
2023-06-16T10:33:25.645Z,9.48
2023-06-16T10:38:37.423Z,6.68
2023-06-16T10:41:07.622Z,6.97
2023-06-16T10:43:35.151Z,6.35
2023-06-16T10:46:20.103Z,6.80
2023-06-16T10:49:05.933Z,7.25
2023-06-16T10:52:05.967Z,10.68
2023-06-16T10:54:38.400Z,7.53
2023-06-16T11:00:26.674Z,6.22
2023-06-16T11:02:58.780Z,9.75
2023-06-16T11:05:40.293Z,6.55
2023-06-16T11:08:14.460Z,6.65
2023-06-16T11:11:04.454Z,6.75
2023-06-16T11:13:35.333Z,13.60
2023-06-16T11:16:03.884Z,9.55
2023-06-16T11:18:35.206Z,8.82
2023-06-16T11:21:13.479Z,8.38
2023-06-16T11:23:45.587Z,6.10
2023-06-16T11:26:16.941Z,10.70
2023-06-16T11:28:44.746Z,8.85
2023-06-16T11:31:13.710Z,7.03
2023-06-16T11:33:42.118Z,6.28
2023-06-16T11:36:19.710Z,6.60
2023-06-16T11:38:49.314Z,5.57
2023-06-16T11:41:21.324Z,6.03
2023-06-16T11:43:52.361Z,6.57
2023-06-16T11:46:24.519Z,6.10
2023-06-16T11:48:53.086Z,8.13
2023-06-16T11:51:21.161Z,8.13
2023-06-16T11:53:48.865Z,7.45
2023-06-16T11:56:18.233Z,8.45
2023-06-16T11:58:54.413Z,12.50
2023-06-16T12:01:25.789Z,8.05
2023-06-16T12:04:03.583Z,7.57
2023-06-16T12:06:33.840Z,8.50
2023-06-16T12:09:01.465Z,10.38
2023-06-16T12:11:32.264Z,8.18
2023-06-16T12:14:02.284Z,8.85
2023-06-16T12:16:29.894Z,8.00
2023-06-16T12:18:58.988Z,10.55
2023-06-16T12:21:29.459Z,11.38
2023-06-16T12:24:01.423Z,7.68
2023-06-16T12:26:33.431Z,8.90
2023-06-16T12:29:10.992Z,7.57
2023-06-16T12:31:56.795Z,8.70
2023-06-16T12:34:30.151Z,7.03
2023-06-16T12:37:07.643Z,9.52
2023-06-16T12:39:35.926Z,19.67
2023-06-16T12:42:06.700Z,10.13
2023-06-16T12:44:47.417Z,7.47
2023-06-16T12:47:16.438Z,8.20
2023-06-16T12:49:44.059Z,6.80
2023-06-16T12:52:13.321Z,7.10
2023-06-16T12:54:42.093Z,7.68
2023-06-16T12:57:10.556Z,6.75
2023-06-16T12:59:39.470Z,6.32
2023-06-16T13:02:07.250Z,8.38
2023-06-16T13:04:34.597Z,8.95
2023-06-16T13:07:01.942Z,15.68
2023-06-16T13:09:29.517Z,8.07
2023-06-16T13:11:58.685Z,8.63
2023-06-16T13:14:27.687Z,10.40
2023-06-16T13:16:56.765Z,7.10
2023-06-16T13:19:24.059Z,8.55
2023-06-16T13:21:51.301Z,7.03
2023-06-16T13:24:19.381Z,7.32
2023-06-16T13:26:46.809Z,7.90
2023-06-16T13:29:14.159Z,7.93
2023-06-16T13:31:41.368Z,8.90
2023-06-16T13:34:08.739Z,7.53
2023-06-16T13:36:36.091Z,6.07
2023-06-16T13:39:04.500Z,6.05
2023-06-16T13:41:32.069Z,7.78
2023-06-16T13:43:59.526Z,26.98
2023-06-16T13:46:26.883Z,11.13
2023-06-16T13:48:54.190Z,8.20
2023-06-16T13:51:21.535Z,7.20
2023-06-16T13:53:49.725Z,6.53
2023-06-16T13:56:16.996Z,10.05
2023-06-16T13:58:44.165Z,5.30
2023-06-16T14:01:11.429Z,8.43
2023-06-16T14:03:38.666Z,9.32
2023-06-16T14:06:05.986Z,8.48
2023-06-16T14:08:33.333Z,6.65
2023-06-16T14:11:02.458Z,9.20
2023-06-16T14:13:29.637Z,9.30
2023-06-16T14:15:56.990Z,7.80
2023-06-16T14:18:24.345Z,7.47
2023-06-16T14:20:51.809Z,6.50
2023-06-16T14:23:19.159Z,9.63
2023-06-16T14:25:46.827Z,6.35
2023-06-16T14:28:15.266Z,9.52
2023-06-16T14:30:42.917Z,9.18
2023-06-16T14:33:12.063Z,7.60
2023-06-16T14:35:40.153Z,10.13
2023-06-16T14:38:07.552Z,6.15
2023-06-16T14:40:36.700Z,6.13
2023-06-16T14:43:04.105Z,8.13
2023-06-16T14:45:31.685Z,8.30
2023-06-16T14:47:59.016Z,8.77
2023-06-16T14:50:26.300Z,6.43
2023-06-16T14:52:53.628Z,9.90
2023-06-16T14:55:21.129Z,8.40
2023-06-16T14:57:48.356Z,11.18
2023-06-16T15:00:15.988Z,10.43
2023-06-16T15:02:43.470Z,9.90
2023-06-16T15:05:10.784Z,7.13
2023-06-16T15:07:38.018Z,10.70
2023-06-16T15:10:05.646Z,6.95
2023-06-16T15:12:33.381Z,9.55
2023-06-16T15:15:00.926Z,6.90
2023-06-16T15:17:31.069Z,7.13
2023-06-16T15:19:58.303Z,7.28
2023-06-16T15:22:27.716Z,6.10
2023-06-16T15:24:54.904Z,6.37
2023-06-16T15:27:22.126Z,8.98
2023-06-16T15:29:49.319Z,9.82
2023-06-16T15:32:16.615Z,11.20
2023-06-16T15:34:43.894Z,10.00
2023-06-16T15:37:11.142Z,6.47
2023-06-16T15:39:38.341Z,7.40
2023-06-16T15:42:05.982Z,6.85
2023-06-16T15:44:33.772Z,7.07
2023-06-16T15:47:01.436Z,6.65
2023-06-16T15:49:28.674Z,6.38
2023-06-16T15:51:59.243Z,7.47
2023-06-16T15:54:26.570Z,5.35
2023-06-16T15:56:53.831Z,9.70
2023-06-16T15:59:21.080Z,8.23
2023-06-16T16:01:48.509Z,7.05
2023-06-16T16:04:16.170Z,5.07
2023-06-16T16:06:43.453Z,7.10
2023-06-16T16:09:11.246Z,6.32
2023-06-16T16:11:41.047Z,13.80
2023-06-16T16:14:09.161Z,6.05
2023-06-16T16:16:37.362Z,5.45
2023-06-16T16:19:04.780Z,5.85
2023-06-16T16:21:32.243Z,6.72
2023-06-16T16:23:59.526Z,8.15
2023-06-16T16:26:26.753Z,9.95
2023-06-16T16:28:54.032Z,5.95
2023-06-16T16:31:21.530Z,6.85
2023-06-16T16:33:48.884Z,7.35
2023-06-16T16:36:17.295Z,7.20
2023-06-16T16:38:44.567Z,6.38
2023-06-16T16:41:11.870Z,6.65
2023-06-16T16:43:39.130Z,8.48
2023-06-16T16:46:06.518Z,6.93
2023-06-16T16:48:33.808Z,5.35
2023-06-16T16:51:01.178Z,7.82
2023-06-16T16:53:46.824Z,9.73
2023-06-16T16:56:14.020Z,8.73
2023-06-16T16:58:41.294Z,8.63
2023-06-16T17:01:09.712Z,7.22
2023-06-16T17:03:37.411Z,11.27
2023-06-16T17:06:04.651Z,7.28
2023-06-16T17:08:31.930Z,11.32
2023-06-16T17:11:00.217Z,6.13
2023-06-16T17:13:27.365Z,6.88
2023-06-16T17:15:55.277Z,6.88
2023-06-16T17:18:22.695Z,8.80
2023-06-16T17:20:49.864Z,9.93
2023-06-16T17:23:17.054Z,8.85
2023-06-16T17:25:44.331Z,9.00
2023-06-16T17:28:11.631Z,12.07
2023-06-16T17:30:38.848Z,11.98
2023-06-16T17:33:06.049Z,12.63
2023-06-16T17:35:33.561Z,9.77
2023-06-16T17:38:03.072Z,15.60
2023-06-16T17:40:32.427Z,10.52
2023-06-16T17:43:02.010Z,9.27
2023-06-16T17:45:29.444Z,11.63
2023-06-16T17:47:56.896Z,8.02
2023-06-16T17:50:27.655Z,12.65
2023-06-16T17:52:55.132Z,14.27
2023-06-16T17:55:23.118Z,11.50
2023-06-16T17:57:50.421Z,13.05
2023-06-16T18:00:22.969Z,10.63
2023-06-16T18:02:50.694Z,16.90
2023-06-16T18:05:18.118Z,11.93
2023-06-16T18:07:45.667Z,9.52
2023-06-16T18:10:12.984Z,13.85
2023-06-16T18:12:40.315Z,11.15
2023-06-16T18:15:08.273Z,10.38
2023-06-16T18:17:36.321Z,12.88
2023-06-16T18:20:04.895Z,15.20
2023-06-16T18:22:36.152Z,14.38
2023-06-16T18:25:04.921Z,9.55
2023-06-16T18:27:35.666Z,15.95
2023-06-16T18:30:06.553Z,12.63
2023-06-16T18:32:37.575Z,10.77
2023-06-16T18:35:06.588Z,12.55
2023-06-16T18:37:45.077Z,19.35
2023-06-16T18:40:13.070Z,21.13
2023-06-16T18:42:40.839Z,16.15
2023-06-16T18:45:08.809Z,12.57
2023-06-16T18:47:37.287Z,15.48
2023-06-16T18:50:06.468Z,21.20
2023-06-16T18:52:34.645Z,12.27
2023-06-16T18:55:02.364Z,15.63
2023-06-16T18:57:38.504Z,16.55
2023-06-16T19:00:08.998Z,15.55
2023-06-16T19:02:36.948Z,14.23
2023-06-16T19:05:06.043Z,14.32
2023-06-16T19:07:36.631Z,12.82
2023-06-16T19:10:04.167Z,11.15
2023-06-16T19:12:33.055Z,14.98
2023-06-16T19:15:00.533Z,19.45
2023-06-16T19:17:27.893Z,14.75
2023-06-16T19:19:55.403Z,14.05
2023-06-16T19:22:22.719Z,11.82
2023-06-16T19:24:49.950Z,12.38
2023-06-16T19:27:17.210Z,10.82
2023-06-16T19:29:44.554Z,11.63
2023-06-16T19:32:11.804Z,11.27
2023-06-16T19:34:39.124Z,11.35
2023-06-16T19:37:06.889Z,11.25
2023-06-16T19:39:34.064Z,16.33
2023-06-16T19:42:01.239Z,14.40
2023-06-16T19:44:28.495Z,12.75
2023-06-16T19:46:55.848Z,10.77
2023-06-16T19:49:23.077Z,17.00
2023-06-16T19:51:51.176Z,11.52
2023-06-16T19:54:18.333Z,12.23
2023-06-16T19:56:45.495Z,13.38
2023-06-16T19:59:12.645Z,12.80
2023-06-16T20:01:40.226Z,11.95
2023-06-16T20:04:08.346Z,13.25
2023-06-16T20:06:35.902Z,13.93
2023-06-16T20:09:03.117Z,15.63
2023-06-16T20:11:30.264Z,15.77
2023-06-16T20:13:57.690Z,9.55
2023-06-16T20:16:26.531Z,12.55
2023-06-16T20:18:54.438Z,10.07
2023-06-16T20:21:22.098Z,11.82
2023-06-16T20:23:49.623Z,9.85
2023-06-16T20:26:17.827Z,11.65
2023-06-16T20:28:45.062Z,12.88
2023-06-16T20:31:12.501Z,11.30
2023-06-16T20:33:39.883Z,11.98
2023-06-16T20:36:08.438Z,14.95
2023-06-16T20:38:36.561Z,13.25
2023-06-16T20:41:04.967Z,12.38
2023-06-16T20:43:32.900Z,14.98
2023-06-16T20:46:01.055Z,9.15
2023-06-16T20:48:30.991Z,14.55
2023-06-16T20:50:58.516Z,13.57
2023-06-16T20:53:25.788Z,12.95
2023-06-16T20:55:53.155Z,10.40
2023-06-16T20:58:25.489Z,12.70
2023-06-16T21:00:56.256Z,14.38
2023-06-16T21:03:25.908Z,14.07
2023-06-16T21:08:20.894Z,12.40
2023-06-16T21:10:48.075Z,14.82
2023-06-16T21:13:15.564Z,13.57
2023-06-16T21:15:45.455Z,12.15
2023-06-16T21:18:13.086Z,11.50
2023-06-16T21:20:40.369Z,11.45
2023-06-16T21:23:07.721Z,19.25
2023-06-16T21:25:34.928Z,19.02
2023-06-16T21:28:02.208Z,15.73
2023-06-16T21:30:29.404Z,15.73
2023-06-16T21:32:57.900Z,17.30
2023-06-16T21:35:26.291Z,15.40
2023-06-16T21:38:01.323Z,13.10
2023-06-16T21:40:29.894Z,17.35
2023-06-16T21:42:58.364Z,13.18
2023-06-16T21:45:25.848Z,13.60
2023-06-16T21:47:53.918Z,16.60
2023-06-16T21:50:21.307Z,19.02
2023-06-16T21:52:50.769Z,16.73
2023-06-16T21:55:18.107Z,17.48
2023-06-16T21:57:45.283Z,15.77
2023-06-16T22:00:13.258Z,15.48
2023-06-16T22:02:40.943Z,14.23
2023-06-16T22:05:10.639Z,13.75
2023-06-16T22:07:38.854Z,19.30
2023-06-16T22:10:07.772Z,12.15
2023-06-16T22:12:38.061Z,15.18
2023-06-16T22:17:35.312Z,12.43
2023-06-16T22:20:05.831Z,13.82
2023-06-16T22:22:36.236Z,12.48
2023-06-16T22:25:03.678Z,16.17
2023-06-16T22:27:31.896Z,16.73
2023-06-16T22:30:00.496Z,19.23
2023-06-16T22:32:29.068Z,12.30
2023-06-16T22:34:56.481Z,18.50
2023-06-16T22:37:23.826Z,20.98
2023-06-16T22:39:52.331Z,15.93
2023-06-16T22:42:19.672Z,18.58
2023-06-16T22:44:47.058Z,12.68
2023-06-16T22:47:14.285Z,16.90
2023-06-16T22:49:41.646Z,18.52
2023-06-16T22:52:09.662Z,21.92
2023-06-16T22:54:37.293Z,14.23
2023-06-16T22:57:04.721Z,16.15
2023-06-16T22:59:32.008Z,12.85
2023-06-16T23:01:59.426Z,16.55
2023-06-16T23:04:26.669Z,20.38
2023-06-16T23:06:54.362Z,12.95
2023-06-16T23:09:21.633Z,13.65
2023-06-16T23:11:48.907Z,17.27
2023-06-16T23:14:16.249Z,14.70
2023-06-16T23:16:43.551Z,24.50
2023-06-16T23:19:12.604Z,14.57
2023-06-16T23:21:40.745Z,15.90
2023-06-16T23:24:08.034Z,12.65
2023-06-16T23:26:35.504Z,13.77
2023-06-16T23:29:06.063Z,20.88
2023-06-16T23:31:35.458Z,13.82
2023-06-16T23:34:04.273Z,12.70
2023-06-16T23:36:32.706Z,13.55
2023-06-16T23:39:01.945Z,14.70
2023-06-16T23:41:29.551Z,15.03
2023-06-16T23:44:01.402Z,12.80
2023-06-16T23:46:29.071Z,15.65
2023-06-16T23:48:56.614Z,13.60
2023-06-16T23:51:24.079Z,15.00
2023-06-16T23:53:51.803Z,14.98
2023-06-16T23:56:19.726Z,18.98
2023-06-16T23:58:47.474Z,14.93
